Terminal Aerodrome Forecast
Issued by NWS

Home | Current Version | Previous Version | Text Only | Print | Product List | Glossary On
Versions: 1 2 3 4 5 6 7 8 9 10 11 12 13 14 15 16 17 18 19 20 21 22 23 24 25 26 27 28 29 30
000
FTUS43 KDMX 260533
TAFOTM
TAF
KOTM 260533Z 2606/2706 01010KT P6SM SCT010 BKN018
     FM260800 21008KT P6SM BKN020
     FM261200 19008KT P6SM SCT010 BKN015
     FM261700 27015KT P6SM SCT015 BKN035
     FM262200 30012KT P6SM SCT020 BKN035=

USA.gov is the U.S. government's official web portal to all federal, state and local government web resources and services.